createdAt,value
2023-12-23T00:02:23.917Z,96.91
2023-12-23T00:04:54.306Z,96.91
2023-12-23T00:07:24.609Z,97.40
2023-12-23T00:09:54.778Z,97.40
2023-12-23T00:12:24.918Z,97.12
2023-12-23T00:14:55.298Z,97.31
2023-12-23T00:17:25.638Z,96.78
2023-12-23T00:19:56.225Z,96.78
2023-12-23T00:22:26.544Z,96.60
2023-12-23T00:24:56.641Z,96.77
2023-12-23T00:27:27.151Z,96.77
2023-12-23T00:29:57.240Z,97.05
2023-12-23T00:32:27.556Z,97.00
2023-12-23T00:34:57.736Z,97.33
2023-12-23T00:37:27.941Z,97.33
2023-12-23T00:39:58.344Z,97.38
2023-12-23T00:42:28.456Z,98.08
2023-12-23T00:44:58.593Z,97.74
2023-12-23T00:47:33.445Z,97.29
2023-12-23T00:50:00.695Z,97.29
2023-12-23T00:52:31.217Z,98.02
2023-12-23T00:55:01.421Z,97.62
2023-12-23T00:57:31.792Z,98.06
2023-12-23T01:00:02.128Z,97.53
2023-12-23T01:02:32.640Z,97.61
2023-12-23T01:05:03.354Z,98.10
2023-12-23T01:07:33.763Z,98.10
2023-12-23T01:10:04.064Z,97.73
2023-12-23T01:12:34.451Z,97.16
2023-12-23T01:15:05.114Z,97.16
2023-12-23T01:17:35.480Z,97.75
2023-12-23T01:20:06.555Z,98.58
2023-12-23T01:22:36.952Z,98.58
2023-12-23T01:25:07.221Z,97.73
2023-12-23T01:27:37.312Z,97.63
2023-12-23T01:30:08.390Z,97.63
2023-12-23T01:32:38.991Z,97.65
2023-12-23T01:35:09.483Z,97.65
2023-12-23T01:37:39.719Z,97.08
2023-12-23T01:40:10.748Z,97.42
2023-12-23T01:42:40.950Z,97.32
2023-12-23T01:45:11.415Z,97.20
2023-12-23T01:47:45.720Z,96.45
2023-12-23T01:50:17.662Z,96.78
2023-12-23T01:52:47.966Z,97.22
2023-12-23T01:55:18.878Z,96.87
2023-12-23T01:57:49.451Z,97.69
2023-12-23T02:00:19.883Z,97.69
2023-12-23T02:02:50.450Z,97.68
2023-12-23T02:05:21.026Z,97.09
2023-12-23T02:07:51.357Z,96.35
2023-12-23T02:10:22.681Z,96.42
2023-12-23T02:13:13.676Z,96.95
2023-12-23T02:15:46.665Z,96.95
2023-12-23T02:18:17.077Z,97.32
2023-12-23T02:20:53.710Z,97.48
2023-12-23T02:23:24.693Z,97.48
2023-12-23T02:25:57.832Z,97.70
2023-12-23T02:28:27.906Z,97.51
2023-12-23T02:30:58.701Z,96.76
2023-12-23T02:33:29.438Z,96.98
2023-12-23T02:35:59.596Z,96.45
2023-12-23T02:38:29.807Z,95.98
2023-12-23T02:40:59.991Z,95.98
2023-12-23T02:43:30.280Z,95.90
2023-12-23T02:46:00.369Z,96.38
2023-12-23T02:48:30.603Z,96.38
2023-12-23T02:51:00.769Z,96.67
2023-12-23T02:53:31.110Z,96.50
2023-12-23T02:56:01.432Z,96.50
2023-12-23T02:58:31.947Z,96.33
2023-12-23T03:01:03.820Z,96.19
2023-12-23T03:03:34.448Z,96.10
2023-12-23T03:06:04.829Z,96.15
2023-12-23T03:08:35.090Z,96.37
2023-12-23T03:11:05.389Z,96.45
2023-12-23T03:13:35.739Z,96.64
2023-12-23T03:16:16.928Z,96.69
2023-12-23T03:18:47.514Z,96.56
2023-12-23T03:21:17.647Z,96.56
2023-12-23T03:23:47.766Z,96.64
2023-12-23T03:26:18.183Z,97.07
2023-12-23T03:28:48.469Z,97.01
2023-12-23T03:31:18.750Z,97.68
2023-12-23T03:33:49.086Z,97.80
2023-12-23T03:36:19.444Z,98.61
2023-12-23T03:38:49.535Z,98.63
2023-12-23T03:41:19.752Z,98.06
2023-12-23T03:43:49.813Z,98.06
2023-12-23T03:46:21.560Z,98.17
2023-12-23T03:48:51.682Z,97.52
2023-12-23T03:51:21.722Z,97.43
2023-12-23T03:53:51.809Z,97.42
2023-12-23T03:56:21.947Z,97.42
2023-12-23T03:58:52.154Z,97.66
2023-12-23T04:01:22.287Z,98.46
2023-12-23T04:03:52.440Z,98.46
2023-12-23T04:06:22.729Z,98.13
2023-12-23T04:08:52.757Z,97.76
2023-12-23T04:11:23.001Z,97.76
2023-12-23T04:13:53.337Z,98.47
2023-12-23T04:16:23.560Z,98.23
2023-12-23T04:18:53.923Z,98.09
2023-12-23T04:21:23.991Z,98.15
2023-12-23T04:23:54.092Z,98.23
2023-12-23T04:26:24.347Z,97.96
2023-12-23T04:28:54.483Z,97.30
2023-12-23T04:31:24.630Z,97.41
2023-12-23T04:33:54.865Z,97.41
2023-12-23T04:36:25.125Z,96.66
2023-12-23T04:38:55.231Z,96.96
2023-12-23T04:41:25.537Z,96.87
2023-12-23T04:43:55.863Z,97.09
2023-12-23T04:46:26.570Z,96.42
2023-12-23T04:48:56.897Z,96.34
2023-12-23T04:51:26.982Z,96.34
2023-12-23T04:53:57.292Z,96.07
2023-12-23T04:56:27.658Z,96.05
2023-12-23T04:58:57.836Z,95.63
2023-12-23T05:01:27.888Z,95.63
2023-12-23T05:03:58.215Z,95.66
2023-12-23T05:06:28.637Z,96.37
2023-12-23T05:08:58.883Z,97.32
2023-12-23T05:11:29.210Z,96.30
2023-12-23T05:13:59.292Z,96.30
2023-12-23T05:16:30.030Z,95.94
2023-12-23T05:19:03.734Z,95.85
2023-12-23T05:21:33.946Z,95.85
2023-12-23T05:24:04.681Z,96.28
2023-12-23T05:26:35.075Z,96.73
2023-12-23T05:29:05.934Z,96.35
2023-12-23T05:31:36.202Z,96.82
2023-12-23T05:34:06.259Z,97.17
2023-12-23T05:36:51.306Z,96.40
2023-12-23T05:39:19.565Z,96.40
2023-12-23T05:41:49.710Z,96.50
2023-12-23T05:44:25.113Z,96.27
2023-12-23T05:46:55.584Z,96.01
2023-12-23T05:49:25.837Z,96.56
2023-12-23T05:51:55.940Z,96.56
2023-12-23T05:54:26.012Z,96.27
2023-12-23T05:56:56.125Z,96.05
2023-12-23T05:59:31.446Z,96.24
2023-12-23T06:02:04.853Z,96.24
2023-12-23T06:04:35.198Z,95.87
2023-12-23T06:07:05.493Z,96.02
2023-12-23T06:09:36.056Z,95.36
2023-12-23T06:12:06.581Z,95.41
2023-12-23T06:14:36.853Z,95.41
2023-12-23T06:17:07.045Z,95.51
2023-12-23T06:19:37.177Z,94.67
2023-12-23T06:22:07.318Z,94.67
2023-12-23T06:24:37.506Z,95.16
2023-12-23T06:27:07.674Z,95.16
2023-12-23T06:29:39.849Z,94.28
2023-12-23T06:32:10.083Z,94.48
2023-12-23T06:34:40.240Z,95.15
2023-12-23T06:37:10.551Z,95.29
2023-12-23T06:39:40.780Z,94.77
2023-12-23T06:42:11.069Z,95.08
2023-12-23T06:44:41.276Z,95.08
2023-12-23T06:47:12.912Z,94.03
2023-12-23T06:49:43.452Z,94.14
2023-12-23T06:52:15.290Z,94.22
2023-12-23T06:54:46.995Z,94.22
2023-12-23T06:57:17.394Z,94.02
2023-12-23T06:59:52.228Z,94.21
2023-12-23T07:02:22.510Z,93.28
2023-12-23T07:04:52.671Z,93.28
2023-12-23T07:07:22.854Z,92.80
2023-12-23T07:10:04.214Z,92.80
2023-12-23T07:12:27.988Z,93.18
2023-12-23T07:14:58.710Z,93.18
2023-12-23T07:17:38.832Z,92.90
2023-12-23T07:20:29.740Z,93.13
2023-12-23T07:23:00.017Z,93.13
2023-12-23T07:25:30.206Z,93.90
2023-12-23T07:28:00.307Z,92.85
2023-12-23T07:30:36.179Z,93.23
2023-12-23T07:33:26.359Z,93.23
2023-12-23T07:35:57.340Z,92.94
2023-12-23T07:38:27.804Z,92.96
2023-12-23T07:41:02.729Z,94.18
2023-12-23T07:43:33.309Z,93.28
2023-12-23T07:46:06.300Z,93.59
2023-12-23T07:48:40.108Z,93.59
2023-12-23T07:51:12.022Z,93.94
2023-12-23T07:53:42.552Z,93.00
2023-12-23T07:56:14.584Z,93.25
2023-12-23T07:58:46.750Z,93.25
2023-12-23T08:01:16.884Z,92.73
2023-12-23T08:03:47.033Z,92.96
2023-12-23T08:06:17.911Z,92.96
2023-12-23T08:08:48.396Z,93.79
2023-12-23T08:11:19.003Z,93.79
2023-12-23T08:13:52.613Z,93.68
2023-12-23T08:16:22.885Z,93.95
2023-12-23T08:18:53.200Z,92.78
2023-12-23T08:21:23.531Z,93.86
2023-12-23T08:23:53.924Z,93.16
2023-12-23T08:26:24.885Z,93.16
2023-12-23T08:28:58.661Z,93.10
2023-12-23T08:31:28.941Z,93.69
2023-12-23T08:33:59.193Z,93.10
2023-12-23T08:36:29.312Z,93.10
2023-12-23T08:39:01.969Z,92.32
2023-12-23T08:41:32.279Z,93.31
2023-12-23T08:44:03.705Z,92.24
2023-12-23T08:46:35.368Z,92.39
2023-12-23T08:49:07.111Z,92.39
2023-12-23T08:51:37.181Z,91.40
2023-12-23T08:54:07.371Z,92.35
2023-12-23T08:56:37.464Z,92.35
2023-12-23T08:59:07.620Z,91.76
2023-12-23T09:01:39.395Z,91.39
2023-12-23T09:04:10.538Z,90.57
2023-12-23T09:06:40.719Z,91.01
2023-12-23T09:09:11.020Z,90.95
2023-12-23T09:11:45.528Z,90.66
2023-12-23T09:14:18.332Z,90.36
2023-12-23T09:16:48.602Z,90.40
2023-12-23T09:19:24.311Z,91.28
2023-12-23T09:21:56.807Z,92.45
2023-12-23T09:24:26.873Z,91.16
2023-12-23T09:26:57.096Z,91.28
2023-12-23T09:29:27.498Z,90.94
2023-12-23T09:31:57.620Z,90.94
2023-12-23T09:34:27.726Z,90.71
2023-12-23T09:36:58.352Z,90.71
2023-12-23T09:39:28.478Z,91.23
2023-12-23T09:42:00.987Z,91.23
2023-12-23T09:44:52.227Z,89.86
2023-12-23T09:47:22.992Z,89.86
2023-12-23T09:49:53.558Z,90.92
2023-12-23T09:52:24.253Z,91.27
2023-12-23T09:54:56.730Z,90.98
2023-12-23T09:57:28.123Z,91.85
2023-12-23T10:00:01.609Z,92.95
2023-12-23T10:02:47.588Z,91.61
2023-12-23T10:05:19.143Z,91.14
2023-12-23T10:07:49.691Z,92.28
2023-12-23T10:10:19.803Z,91.51
2023-12-23T10:13:00.202Z,92.18
2023-12-23T10:15:31.807Z,93.59
2023-12-23T10:18:08.496Z,93.40
2023-12-23T10:20:41.973Z,92.93
2023-12-23T10:23:12.936Z,94.10
2023-12-23T10:26:06.571Z,92.03
2023-12-23T10:28:41.407Z,92.62
2023-12-23T10:31:14.243Z,94.36
2023-12-23T10:33:47.406Z,94.36
2023-12-23T10:36:19.938Z,96.03
2023-12-23T10:38:53.291Z,94.62
2023-12-23T10:41:45.622Z,93.55
2023-12-23T10:44:17.684Z,94.65
2023-12-23T10:46:51.387Z,94.93
2023-12-23T10:49:24.619Z,96.42
2023-12-23T10:51:56.446Z,96.42
2023-12-23T10:54:27.488Z,97.19
2023-12-23T10:56:59.344Z,97.75
2023-12-23T10:59:35.240Z,96.16
2023-12-23T11:02:19.373Z,97.52
2023-12-23T11:04:54.874Z,96.94
2023-12-23T11:07:28.058Z,95.97
2023-12-23T11:10:00.881Z,94.44
2023-12-23T11:12:35.723Z,95.25
2023-12-23T11:15:10.775Z,95.38
2023-12-23T11:17:45.936Z,96.67
2023-12-23T11:20:36.923Z,95.57
2023-12-23T11:23:27.183Z,95.76
2023-12-23T11:26:00.119Z,96.45
2023-12-23T11:28:32.370Z,96.45
2023-12-23T11:31:04.046Z,96.40
2023-12-23T11:33:35.848Z,95.97
2023-12-23T11:36:07.014Z,96.27
2023-12-23T11:38:48.510Z,96.82
2023-12-23T11:41:25.905Z,96.37
2023-12-23T11:43:58.618Z,96.12
2023-12-23T11:46:30.446Z,96.12
2023-12-23T11:49:02.381Z,96.22
2023-12-23T11:51:34.230Z,96.22
2023-12-23T11:54:06.747Z,96.75
2023-12-23T11:56:39.994Z,97.42
2023-12-23T11:59:13.107Z,97.20
2023-12-23T12:01:43.215Z,97.37
2023-12-23T12:04:24.172Z,96.70
2023-12-23T12:06:55.018Z,96.86
2023-12-23T12:09:25.734Z,96.86
2023-12-23T12:12:22.036Z,97.25
2023-12-23T12:14:52.172Z,96.56
2023-12-23T12:17:22.451Z,97.67
2023-12-23T12:19:54.430Z,97.24
2023-12-23T12:22:28.928Z,96.57
2023-12-23T12:24:59.417Z,96.79
2023-12-23T12:27:40.365Z,96.21
2023-12-23T12:30:11.926Z,97.22
2023-12-23T12:32:53.538Z,96.86
2023-12-23T12:35:24.183Z,96.94
2023-12-23T12:37:54.564Z,96.22
2023-12-23T12:40:25.335Z,96.49
2023-12-23T12:42:57.645Z,95.92
2023-12-23T12:45:28.258Z,95.46
2023-12-23T12:47:58.956Z,95.38
2023-12-23T12:50:29.387Z,95.38
2023-12-23T12:53:01.270Z,95.69
2023-12-23T12:55:32.214Z,96.30
2023-12-23T12:58:05.096Z,96.30
2023-12-23T13:00:37.124Z,95.30
2023-12-23T13:03:07.996Z,95.99
2023-12-23T13:05:38.170Z,96.47
2023-12-23T13:08:09.984Z,96.27
2023-12-23T13:10:40.204Z,96.19
2023-12-23T13:13:15.317Z,96.43
2023-12-23T13:15:53.910Z,95.97
2023-12-23T13:18:25.653Z,96.57
2023-12-23T13:23:57.561Z,96.02
2023-12-23T13:26:31.952Z,96.23
2023-12-23T13:31:43.749Z,96.47
2023-12-23T13:37:45.749Z,96.31
2023-12-23T13:40:20.603Z,95.79
2023-12-23T13:42:50.857Z,95.61
2023-12-23T13:45:22.863Z,96.15
2023-12-23T13:47:55.173Z,95.65
2023-12-23T13:50:27.718Z,96.07
2023-12-23T13:52:58.211Z,97.23
2023-12-23T13:55:28.779Z,97.23
2023-12-23T13:57:59.186Z,96.73
2023-12-23T14:04:32.146Z,96.87
2023-12-23T14:07:01.241Z,96.07
2023-12-23T14:09:34.261Z,96.55
2023-12-23T14:12:06.059Z,96.57
2023-12-23T14:14:39.340Z,97.23
2023-12-23T14:17:09.712Z,97.23
2023-12-23T14:19:40.434Z,96.85
2023-12-23T14:22:11.251Z,96.85
2023-12-23T14:24:46.702Z,97.51
2023-12-23T14:27:17.006Z,97.12
2023-12-23T14:29:47.417Z,96.87
2023-12-23T14:32:20.366Z,96.90
2023-12-23T14:34:54.510Z,97.19
2023-12-23T14:37:27.682Z,96.76
2023-12-23T14:40:14.695Z,96.74
2023-12-23T14:43:06.010Z,96.79
2023-12-23T14:45:36.136Z,97.04
2023-12-23T14:48:09.175Z,97.04
2023-12-23T14:50:42.324Z,97.03
2023-12-23T14:53:12.218Z,97.73
2023-12-23T14:55:59.093Z,97.20
2023-12-23T14:58:51.931Z,97.73
2023-12-23T15:01:27.788Z,97.05
2023-12-23T15:03:59.536Z,97.30
2023-12-23T15:06:30.778Z,97.22
2023-12-23T15:09:04.776Z,97.04
2023-12-23T15:11:35.244Z,96.81
2023-12-23T15:14:08.300Z,96.81
2023-12-23T15:16:38.983Z,96.51
2023-12-23T15:19:14.321Z,96.20
2023-12-23T15:21:45.657Z,96.20
2023-12-23T15:24:22.163Z,96.35
2023-12-23T15:26:57.114Z,97.14
2023-12-23T15:29:30.983Z,96.77
2023-12-23T15:32:02.904Z,96.77
2023-12-23T15:35:49.641Z,95.74
2023-12-23T15:43:40.578Z,96.15
2023-12-23T15:46:26.780Z,95.75
2023-12-23T15:49:03.280Z,96.34
2023-12-23T15:51:32.101Z,96.30
2023-12-23T15:54:05.330Z,96.30
2023-12-23T15:56:41.947Z,95.49
2023-12-23T15:59:15.503Z,95.57
2023-12-23T16:05:02.921Z,96.42
2023-12-23T16:10:12.940Z,95.29
2023-12-23T16:12:43.380Z,95.87
2023-12-23T16:15:33.913Z,96.39
2023-12-23T16:18:07.246Z,95.55
2023-12-23T16:20:49.401Z,95.39
2023-12-23T16:23:22.187Z,95.63
2023-12-23T16:25:55.748Z,96.25
2023-12-23T16:28:28.447Z,96.25
2023-12-23T16:31:05.927Z,96.05
2023-12-23T16:36:24.493Z,96.16
2023-12-23T16:38:55.712Z,95.95
2023-12-23T16:42:53.460Z,95.88
2023-12-23T16:44:29.938Z,95.62
2023-12-23T16:47:03.980Z,95.91
2023-12-23T16:49:41.376Z,95.80
2023-12-23T16:52:11.496Z,95.80
2023-12-23T16:54:44.841Z,96.05
2023-12-23T16:57:20.442Z,94.91
2023-12-23T16:59:50.800Z,95.88
2023-12-23T17:02:23.390Z,96.71
2023-12-23T17:04:55.204Z,96.12
2023-12-23T17:07:26.789Z,95.68
2023-12-23T17:09:56.904Z,94.76
2023-12-23T17:12:27.199Z,95.47
2023-12-23T17:14:57.581Z,95.68
2023-12-23T17:17:27.973Z,95.79
2023-12-23T17:20:00.685Z,96.45
2023-12-23T17:22:32.500Z,95.18
2023-12-23T17:25:03.054Z,96.52
2023-12-23T17:27:37.058Z,96.52
2023-12-23T17:30:14.284Z,95.10
2023-12-23T17:33:01.030Z,95.29
2023-12-23T17:35:36.709Z,95.53
2023-12-23T17:38:05.242Z,94.38
2023-12-23T17:40:35.538Z,95.35
2023-12-23T17:43:07.138Z,95.35
2023-12-23T17:45:42.028Z,95.85
2023-12-23T17:48:15.006Z,95.77
2023-12-23T17:50:46.637Z,95.71
2023-12-23T17:53:26.123Z,95.71
2023-12-23T17:55:58.625Z,95.31
2023-12-23T17:58:33.691Z,95.31
2023-12-23T18:01:13.564Z,94.96
2023-12-23T18:03:44.518Z,95.29
2023-12-23T18:06:31.180Z,96.03
2023-12-23T18:08:51.902Z,95.86
2023-12-23T18:12:34.959Z,96.44
2023-12-23T18:14:03.974Z,95.93
2023-12-23T18:17:02.767Z,95.61
2023-12-23T18:19:19.432Z,95.83
2023-12-23T18:25:16.454Z,95.95
2023-12-23T18:27:51.769Z,95.51
2023-12-23T18:30:21.056Z,95.51
2023-12-23T18:33:47.884Z,94.90
2023-12-23T18:35:27.138Z,94.75
2023-12-23T18:38:04.992Z,95.78
2023-12-23T18:40:32.291Z,95.04
2023-12-23T18:43:04.224Z,95.04
2023-12-23T18:45:34.503Z,95.46
2023-12-23T18:48:09.690Z,96.04
2023-12-23T18:50:46.260Z,96.04
2023-12-23T18:56:09.863Z,95.69
2023-12-23T18:58:53.356Z,97.55
2023-12-23T19:01:38.707Z,97.55
2023-12-23T19:03:54.856Z,96.37
2023-12-23T19:06:26.446Z,96.62
2023-12-23T19:08:58.525Z,96.69
2023-12-23T19:11:58.229Z,96.63
2023-12-23T19:19:46.538Z,95.92
2023-12-23T19:22:51.402Z,97.68
2023-12-23T19:38:26.281Z,96.69
2023-12-23T19:40:54.280Z,96.25
2023-12-23T19:43:24.824Z,96.15
2023-12-23T19:45:59.929Z,96.23
2023-12-23T19:48:32.756Z,95.68
2023-12-23T19:52:02.998Z,95.95
2023-12-23T19:53:55.645Z,95.33
2023-12-23T19:56:44.065Z,95.94
2023-12-23T19:59:20.508Z,95.22
2023-12-23T20:01:58.212Z,95.22
2023-12-23T20:04:29.932Z,96.52
2023-12-23T20:07:12.397Z,96.33
2023-12-23T20:09:38.318Z,96.33
2023-12-23T20:12:11.520Z,95.24
2023-12-23T20:15:08.455Z,96.20
2023-12-23T20:17:57.128Z,95.56
2023-12-23T20:20:41.151Z,95.69
2023-12-23T20:23:15.702Z,95.29
2023-12-23T20:25:46.701Z,95.29
2023-12-23T20:28:19.841Z,95.37
2023-12-23T20:31:02.491Z,95.60
2023-12-23T20:33:34.750Z,95.60
2023-12-23T20:36:06.051Z,95.12
2023-12-23T20:38:36.951Z,95.49
2023-12-23T20:41:15.914Z,95.37
2023-12-23T20:44:00.419Z,95.85
2023-12-23T20:46:36.278Z,94.94
2023-12-23T20:49:10.951Z,95.20
2023-12-23T20:51:46.865Z,95.20
2023-12-23T20:54:21.445Z,95.62
2023-12-23T20:56:53.374Z,94.90
2023-12-23T20:59:34.076Z,96.24
2023-12-23T21:02:09.086Z,96.24
2023-12-23T21:04:41.938Z,95.41
2023-12-23T21:07:12.584Z,94.80
2023-12-23T21:09:42.970Z,94.42
2023-12-23T21:12:16.228Z,95.14
2023-12-23T21:14:52.334Z,95.33
2023-12-23T21:17:24.915Z,95.08
2023-12-23T21:19:56.834Z,95.33
2023-12-23T21:22:32.449Z,95.80
2023-12-23T21:27:48.283Z,95.40
2023-12-23T21:30:20.069Z,95.97
2023-12-23T21:33:00.636Z,95.97
2023-12-23T21:35:35.308Z,95.00
2023-12-23T21:38:07.217Z,95.00
2023-12-23T21:40:47.456Z,95.54
2023-12-23T21:43:27.126Z,96.20
2023-12-23T21:45:59.975Z,96.07
2023-12-23T21:48:30.544Z,95.51
2023-12-23T21:51:06.067Z,95.90
2023-12-23T21:53:37.785Z,95.90
2023-12-23T21:56:09.686Z,95.97
2023-12-23T21:58:48.619Z,96.12
2023-12-23T22:01:18.734Z,96.11
2023-12-23T22:03:48.932Z,96.15
2023-12-23T22:06:19.341Z,96.15
2023-12-23T22:08:50.992Z,95.39
2023-12-23T22:11:29.657Z,96.36
2023-12-23T22:14:01.426Z,96.02
2023-12-23T22:16:33.563Z,95.93
2023-12-23T22:19:07.034Z,95.25
2023-12-23T22:21:37.180Z,95.40
2023-12-23T22:24:09.132Z,95.83
2023-12-23T22:26:39.652Z,95.83
2023-12-23T22:29:09.803Z,95.42
2023-12-23T22:31:42.618Z,96.75
2023-12-23T22:34:14.901Z,96.75
2023-12-23T22:36:45.456Z,96.20
2023-12-23T22:39:15.756Z,95.00
2023-12-23T22:41:45.905Z,95.77
2023-12-23T22:44:16.174Z,95.77
2023-12-23T22:46:46.327Z,96.16
2023-12-23T22:49:16.811Z,95.27
2023-12-23T22:51:47.074Z,95.53
2023-12-23T22:54:17.268Z,95.53
2023-12-23T22:56:47.409Z,94.55
2023-12-23T22:59:17.661Z,95.42
2023-12-23T23:01:47.779Z,95.11
2023-12-23T23:04:17.972Z,95.42
2023-12-23T23:06:48.637Z,95.59
2023-12-23T23:09:20.077Z,95.41
2023-12-23T23:11:51.915Z,95.41
2023-12-23T23:14:22.280Z,96.68
2023-12-23T23:16:52.528Z,96.68
2023-12-23T23:19:23.011Z,96.42
2023-12-23T23:21:53.259Z,96.72
2023-12-23T23:24:24.154Z,95.24
2023-12-23T23:26:54.352Z,96.45
2023-12-23T23:29:24.745Z,96.80
2023-12-23T23:31:55.247Z,96.80
2023-12-23T23:34:25.378Z,95.75
2023-12-23T23:36:55.505Z,96.12
2023-12-23T23:39:25.583Z,96.92
2023-12-23T23:41:55.610Z,95.69
2023-12-23T23:44:25.805Z,96.43
2023-12-23T23:46:57.756Z,96.43
2023-12-23T23:49:27.842Z,95.65
2023-12-23T23:51:57.993Z,95.82
2023-12-23T23:54:28.102Z,95.38
2023-12-23T23:56:58.256Z,95.38
2023-12-23T23:59:28.594Z,94.68
